createdAt,value
2022-08-22T00:00:18.574Z,75.63
2022-08-22T00:02:53.685Z,60.41
2022-08-22T00:03:07.734Z,76.52
2022-08-22T00:03:23.959Z,74.61
2022-08-22T00:06:11.876Z,74.67
2022-08-22T00:09:05.919Z,75.07
2022-08-22T00:12:16.612Z,76.10
2022-08-22T00:15:07.185Z,77.18
2022-08-22T00:18:19.610Z,77.22
2022-08-22T00:21:27.146Z,77.49
2022-08-22T00:24:41.492Z,77.18
2022-08-22T00:27:23.827Z,77.57
2022-08-22T00:30:07.651Z,77.88
2022-08-22T00:32:45.501Z,78.78
2022-08-22T00:35:26.297Z,78.57
2022-08-22T00:38:22.633Z,78.84
2022-08-22T00:41:25.162Z,78.94
2022-08-22T00:44:35.791Z,79.32
2022-08-22T00:47:35.804Z,78.75
2022-08-22T00:50:18.500Z,79.35
2022-08-22T00:53:22.154Z,78.76
2022-08-22T00:56:35.029Z,78.94
2022-08-22T00:59:53.108Z,79.14
2022-08-22T01:02:59.450Z,79.57
2022-08-22T01:06:01.992Z,80.01
2022-08-22T01:08:50.172Z,79.58
2022-08-22T01:11:50.383Z,80.48
2022-08-22T01:14:49.399Z,80.26
2022-08-22T01:17:55.633Z,80.14
2022-08-22T01:20:57.360Z,80.83
2022-08-22T01:24:28.299Z,80.27
2022-08-22T01:27:30.163Z,80.68
2022-08-22T01:30:40.685Z,80.97
2022-08-22T01:33:29.654Z,80.83
2022-08-22T01:36:52.355Z,80.65
2022-08-22T01:39:40.506Z,81.46
2022-08-22T01:42:45.922Z,81.04
2022-08-22T01:45:47.113Z,81.99
2022-08-22T01:48:53.377Z,82.26
2022-08-22T01:51:43.723Z,83.14
2022-08-22T01:54:33.813Z,81.68
2022-08-22T01:57:15.094Z,81.69
2022-08-22T02:00:01.404Z,81.62
2022-08-22T02:02:44.786Z,80.73
2022-08-22T02:05:46.935Z,81.11
2022-08-22T02:08:59.150Z,82.27
2022-08-22T02:12:13.839Z,81.86
2022-08-22T02:15:40.629Z,81.75
2022-08-22T02:18:12.913Z,81.80
2022-08-22T02:21:16.710Z,81.38
2022-08-22T02:24:14.576Z,80.33
2022-08-22T02:27:32.023Z,80.20
2022-08-22T02:30:51.518Z,80.24
2022-08-22T02:33:38.599Z,80.36
2022-08-22T02:36:54.969Z,80.74
2022-08-22T02:39:45.455Z,80.84
2022-08-22T02:42:26.169Z,81.30
2022-08-22T02:45:22.025Z,82.40
2022-08-22T02:48:19.205Z,81.45
2022-08-22T02:51:08.252Z,81.39
2022-08-22T02:54:09.052Z,81.83
2022-08-22T02:57:26.467Z,81.85
2022-08-22T03:00:32.351Z,82.24
2022-08-22T03:03:22.811Z,83.26
2022-08-22T03:06:09.067Z,83.76
2022-08-22T03:09:19.039Z,83.37
2022-08-22T03:12:00.020Z,84.00
2022-08-22T03:14:59.079Z,84.13
2022-08-22T03:17:47.189Z,84.46
2022-08-22T03:20:38.623Z,84.48
2022-08-22T03:23:25.386Z,84.43
2022-08-22T03:26:19.664Z,83.91
2022-08-22T03:29:00.172Z,83.67
2022-08-22T03:31:32.059Z,83.77
2022-08-22T03:34:29.344Z,83.59
2022-08-22T03:37:19.050Z,84.08
2022-08-22T03:40:06.742Z,84.69
2022-08-22T03:43:21.333Z,83.70
2022-08-22T03:46:20.402Z,83.08
2022-08-22T03:49:32.251Z,82.75
2022-08-22T03:53:02.646Z,83.07
2022-08-22T03:56:11.842Z,83.38
2022-08-22T03:59:35.464Z,83.71
2022-08-22T04:02:48.347Z,83.59
2022-08-22T04:05:44.748Z,83.57
2022-08-22T04:09:14.823Z,83.79
2022-08-22T04:12:15.671Z,83.43
2022-08-22T04:15:48.721Z,84.47
2022-08-22T04:18:38.513Z,83.67
2022-08-22T04:21:42.786Z,82.69
2022-08-22T04:24:23.981Z,82.29
2022-08-22T04:27:26.405Z,82.08
2022-08-22T04:30:35.788Z,81.49
2022-08-22T04:33:32.225Z,81.25
2022-08-22T04:36:13.176Z,80.87
2022-08-22T04:39:23.051Z,80.83
2022-08-22T04:42:35.354Z,80.45
2022-08-22T04:45:10.712Z,80.04
2022-08-22T04:48:27.870Z,79.54
2022-08-22T04:51:08.470Z,79.60
2022-08-22T04:53:49.497Z,79.47
2022-08-22T04:57:00.113Z,79.48
2022-08-22T04:59:30.756Z,79.26
2022-08-22T05:02:08.267Z,79.24
2022-08-22T05:04:49.720Z,79.23
2022-08-22T05:07:36.225Z,78.55
2022-08-22T05:10:34.194Z,77.89
2022-08-22T05:13:52.210Z,77.32
2022-08-22T05:16:52.188Z,77.03
2022-08-22T05:19:32.056Z,76.72
2022-08-22T05:22:06.870Z,76.46
2022-08-22T05:25:17.647Z,76.34
2022-08-22T05:28:34.855Z,76.62
2022-08-22T05:31:15.996Z,76.35
2022-08-22T05:34:08.208Z,75.78
2022-08-22T05:37:13.212Z,75.47
2022-08-22T05:39:47.879Z,75.20
2022-08-22T05:42:52.060Z,74.72
2022-08-22T05:45:26.379Z,74.41
2022-08-22T05:48:23.122Z,74.53
2022-08-22T05:51:10.771Z,74.37
2022-08-22T05:53:48.083Z,73.44
2022-08-22T05:56:37.883Z,73.19
2022-08-22T05:59:34.558Z,72.83
2022-08-22T06:02:48.279Z,72.62
2022-08-22T06:05:27.541Z,72.20
2022-08-22T06:08:33.564Z,71.88
2022-08-22T06:11:32.704Z,71.49
2022-08-22T06:14:28.011Z,71.87
2022-08-22T06:17:36.013Z,71.92
2022-08-22T06:20:09.826Z,71.28
2022-08-22T06:23:10.765Z,71.07
2022-08-22T06:25:44.241Z,70.44
2022-08-22T06:28:24.992Z,69.85
2022-08-22T06:31:04.246Z,69.24
2022-08-22T06:34:06.403Z,69.29
2022-08-22T06:36:49.178Z,69.12
2022-08-22T06:39:31.526Z,69.14
2022-08-22T06:42:27.022Z,68.80
2022-08-22T06:45:35.223Z,68.99
2022-08-22T06:48:10.913Z,68.40
2022-08-22T06:50:55.700Z,68.59
2022-08-22T06:53:50.664Z,68.20
2022-08-22T06:56:45.300Z,67.93
2022-08-22T06:59:47.801Z,67.29
2022-08-22T07:02:50.966Z,66.65
2022-08-22T07:05:43.752Z,64.72
2022-08-22T07:08:23.861Z,65.51
2022-08-22T07:11:25.939Z,64.91
2022-08-22T07:14:19.445Z,64.40
2022-08-22T07:17:01.453Z,64.39
2022-08-22T07:19:36.784Z,64.70
2022-08-22T07:22:30.477Z,64.96
2022-08-22T07:25:16.360Z,64.39
2022-08-22T07:28:17.860Z,64.22
2022-08-22T07:31:37.010Z,64.47
2022-08-22T07:34:47.858Z,63.69
2022-08-22T07:37:24.742Z,63.58
2022-08-22T07:40:35.759Z,62.97
2022-08-22T07:43:25.220Z,62.45
2022-08-22T07:46:01.964Z,63.07
2022-08-22T07:49:05.930Z,62.97
2022-08-22T07:51:45.553Z,62.29
2022-08-22T07:54:27.526Z,61.86
2022-08-22T07:57:13.206Z,62.34
2022-08-22T07:59:55.003Z,62.12
2022-08-22T08:02:25.052Z,62.08
2022-08-22T08:04:56.677Z,61.30
2022-08-22T08:07:31.913Z,61.12
2022-08-22T08:10:12.386Z,61.21
2022-08-22T08:12:54.169Z,60.94
2022-08-22T08:15:37.442Z,60.17
2022-08-22T08:18:13.291Z,59.41
2022-08-22T08:20:42.503Z,59.17
2022-08-22T08:23:19.383Z,58.92
2022-08-22T08:26:18.973Z,57.48
2022-08-22T08:28:55.717Z,57.27
2022-08-22T08:31:44.904Z,55.97
2022-08-22T08:34:26.808Z,56.52
2022-08-22T08:37:05.451Z,55.94
2022-08-22T08:39:50.008Z,56.25
2022-08-22T08:42:55.573Z,55.25
2022-08-22T08:45:43.401Z,54.50
2022-08-22T08:49:06.888Z,53.82
2022-08-22T08:52:08.011Z,53.39
2022-08-22T08:55:32.473Z,53.84
2022-08-22T08:58:19.356Z,54.19
2022-08-22T09:01:16.345Z,53.82
2022-08-22T09:04:18.157Z,53.17
2022-08-22T09:07:24.871Z,53.73
2022-08-22T09:10:29.499Z,53.77
2022-08-22T09:13:24.564Z,54.24
2022-08-22T09:16:19.246Z,53.78
2022-08-22T09:19:20.121Z,53.79
2022-08-22T09:22:14.474Z,53.59
2022-08-22T09:25:44.176Z,53.41
2022-08-22T09:28:28.234Z,53.57
2022-08-22T09:31:02.137Z,53.53
2022-08-22T09:33:55.526Z,53.55
2022-08-22T09:36:57.776Z,53.61
2022-08-22T09:39:30.761Z,53.48
2022-08-22T09:42:14.908Z,52.91
2022-08-22T09:45:11.190Z,53.04
2022-08-22T09:48:00.305Z,52.64
2022-08-22T09:51:01.641Z,51.89
2022-08-22T09:53:45.326Z,51.87
2022-08-22T09:56:36.005Z,51.86
2022-08-22T09:59:13.419Z,50.97
2022-08-22T10:02:03.187Z,49.96
2022-08-22T10:04:45.433Z,50.12
2022-08-22T10:08:26.366Z,50.48
2022-08-22T10:11:32.186Z,50.99
2022-08-22T10:14:33.419Z,51.12
2022-08-22T10:17:31.891Z,51.55
2022-08-22T10:20:36.510Z,51.67
2022-08-22T10:23:31.698Z,51.50
2022-08-22T10:26:22.833Z,51.75
2022-08-22T10:29:04.876Z,51.38
2022-08-22T10:31:59.782Z,51.06
2022-08-22T10:34:35.979Z,50.94
2022-08-22T10:38:00.297Z,49.78
2022-08-22T10:40:49.623Z,49.53
2022-08-22T10:43:41.869Z,48.63
2022-08-22T10:46:31.468Z,47.97
2022-08-22T10:49:08.276Z,47.92
2022-08-22T10:51:56.894Z,47.83
2022-08-22T10:54:56.053Z,46.76
2022-08-22T10:57:31.922Z,46.58
2022-08-22T11:00:37.215Z,46.60
2022-08-22T11:03:52.656Z,46.15
2022-08-22T11:07:15.118Z,46.31
2022-08-22T11:09:43.490Z,46.04
2022-08-22T11:12:35.076Z,45.63
2022-08-22T11:15:58.353Z,44.88
2022-08-22T11:18:37.698Z,44.58
2022-08-22T11:21:34.595Z,44.16
2022-08-22T11:24:35.549Z,44.19
2022-08-22T11:27:17.684Z,43.70
2022-08-22T11:30:10.275Z,42.61
2022-08-22T11:33:09.744Z,42.51
2022-08-22T11:35:44.059Z,42.25
2022-08-22T11:39:10.016Z,42.54
2022-08-22T11:42:11.773Z,41.05
2022-08-22T11:44:50.387Z,40.49
2022-08-22T11:47:26.771Z,41.35
2022-08-22T11:49:57.007Z,41.03
2022-08-22T11:52:54.198Z,40.73
2022-08-22T11:55:48.187Z,41.36
2022-08-22T11:58:54.197Z,41.28
2022-08-22T12:01:56.286Z,40.95
2022-08-22T12:04:57.102Z,40.68
2022-08-22T12:07:32.729Z,40.41
2022-08-22T12:10:17.513Z,40.28
2022-08-22T12:12:44.479Z,40.40
2022-08-22T12:15:18.518Z,40.64
2022-08-22T12:18:30.631Z,40.20
2022-08-22T12:21:21.719Z,40.43
2022-08-22T12:24:20.842Z,40.66
2022-08-22T12:27:06.475Z,41.01
2022-08-22T12:30:01.584Z,41.36
2022-08-22T12:32:49.722Z,41.48
2022-08-22T12:36:04.918Z,41.81
2022-08-22T12:38:50.246Z,41.89
2022-08-22T12:41:48.279Z,41.42
2022-08-22T12:44:30.224Z,41.04
2022-08-22T12:47:09.631Z,40.81
2022-08-22T12:50:18.844Z,40.98
2022-08-22T12:53:24.318Z,40.80
2022-08-22T12:56:26.842Z,40.62
2022-08-22T12:59:19.050Z,40.53
2022-08-22T13:01:51.663Z,40.46
2022-08-22T13:04:33.116Z,39.86
2022-08-22T13:07:19.771Z,40.06
2022-08-22T13:10:26.122Z,40.29
2022-08-22T13:12:57.183Z,39.85
2022-08-22T13:15:35.985Z,39.81
2022-08-22T13:18:29.534Z,39.52
2022-08-22T13:21:02.339Z,39.60
2022-08-22T13:23:39.760Z,39.37
2022-08-22T13:26:31.796Z,39.46
2022-08-22T13:29:26.746Z,39.58
2022-08-22T13:32:01.180Z,39.39
2022-08-22T13:34:50.652Z,38.60
2022-08-22T13:37:35.402Z,38.55
2022-08-22T13:40:09.718Z,38.47
2022-08-22T13:42:47.795Z,38.69
2022-08-22T13:45:26.384Z,38.72
2022-08-22T13:48:11.599Z,39.18
2022-08-22T13:51:12.460Z,39.17
2022-08-22T13:53:50.002Z,39.25
2022-08-22T13:56:56.940Z,38.89
2022-08-22T13:59:50.100Z,38.98
2022-08-22T14:03:05.729Z,39.43
2022-08-22T14:05:56.030Z,39.57
2022-08-22T14:08:36.214Z,39.61
2022-08-22T14:11:27.203Z,39.55
2022-08-22T14:14:03.163Z,39.78
2022-08-22T14:16:55.949Z,39.54
2022-08-22T14:19:53.159Z,39.15
2022-08-22T14:22:32.099Z,39.56
2022-08-22T14:25:26.744Z,39.52
2022-08-22T14:28:10.968Z,39.62
2022-08-22T14:31:00.867Z,39.84
2022-08-22T14:33:46.118Z,39.95
2022-08-22T14:36:22.812Z,39.94
2022-08-22T14:39:30.547Z,39.91
2022-08-22T14:42:22.993Z,40.50
2022-08-22T14:45:25.469Z,40.59
2022-08-22T14:48:30.142Z,40.58
2022-08-22T14:51:17.035Z,40.47
2022-08-22T14:53:44.373Z,40.68
2022-08-22T14:56:18.181Z,40.86
2022-08-22T14:59:08.781Z,40.85
2022-08-22T15:02:05.555Z,41.10
2022-08-22T15:04:44.934Z,41.39
2022-08-22T15:07:23.312Z,41.60
2022-08-22T15:10:22.271Z,41.73
2022-08-22T15:12:55.452Z,41.61
2022-08-22T15:15:49.816Z,41.72
2022-08-22T15:18:29.905Z,41.81
2022-08-22T15:21:08.577Z,41.88
2022-08-22T15:23:45.375Z,42.00
2022-08-22T15:26:36.104Z,42.09
2022-08-22T15:29:31.220Z,42.30
2022-08-22T15:32:01.782Z,42.49
2022-08-22T15:34:43.842Z,42.54
2022-08-22T15:37:20.169Z,42.56
2022-08-22T15:40:19.832Z,42.45
2022-08-22T15:42:54.034Z,42.59
2022-08-22T15:45:36.770Z,42.30
2022-08-22T15:48:24.700Z,42.49
2022-08-22T15:51:09.737Z,42.71
2022-08-22T15:53:43.114Z,42.97
2022-08-22T15:56:19.870Z,43.07
2022-08-22T15:59:23.178Z,43.05
2022-08-22T16:01:58.466Z,43.00
2022-08-22T16:04:46.907Z,42.96
2022-08-22T16:07:45.499Z,43.47
2022-08-22T16:10:21.679Z,47.22
2022-08-22T16:13:16.289Z,48.09
2022-08-22T16:15:54.337Z,50.24
2022-08-22T16:18:50.713Z,52.07
2022-08-22T16:21:20.855Z,52.99
2022-08-22T16:23:51.133Z,53.43
2022-08-22T16:26:43.716Z,56.42
2022-08-22T16:29:14.693Z,56.46
2022-08-22T16:31:44.589Z,57.13
2022-08-22T16:34:43.483Z,58.12
2022-08-22T16:37:24.376Z,58.86
2022-08-22T16:40:00.517Z,59.64
2022-08-22T16:42:42.415Z,60.17
2022-08-22T16:45:23.266Z,60.38
2022-08-22T16:48:02.288Z,60.53
2022-08-22T16:50:38.048Z,61.45
2022-08-22T16:53:18.523Z,61.71
2022-08-22T16:56:32.214Z,62.07
2022-08-22T16:59:22.472Z,61.05
2022-08-22T17:02:00.228Z,61.45
2022-08-22T17:04:50.145Z,62.28
2022-08-22T17:07:30.349Z,62.56
2022-08-22T17:10:14.447Z,62.68
2022-08-22T17:13:02.900Z,63.13
2022-08-22T17:16:13.522Z,63.25
2022-08-22T17:19:25.656Z,63.10
2022-08-22T17:22:19.423Z,63.13
2022-08-22T17:25:16.575Z,63.29
2022-08-22T17:28:03.688Z,63.71
2022-08-22T17:31:10.988Z,63.32
2022-08-22T17:33:41.081Z,63.53
2022-08-22T17:36:45.399Z,63.58
2022-08-22T17:39:55.634Z,63.31
2022-08-22T17:43:48.417Z,63.58
2022-08-22T17:46:37.313Z,63.55
2022-08-22T17:49:25.647Z,64.02
2022-08-22T17:52:19.935Z,64.11
2022-08-22T17:55:26.226Z,64.49
2022-08-22T17:58:05.286Z,64.67
2022-08-22T18:01:04.244Z,64.59
2022-08-22T18:03:46.834Z,64.52
2022-08-22T18:06:30.012Z,64.73
2022-08-22T18:09:14.378Z,64.95
2022-08-22T18:11:52.608Z,64.85
2022-08-22T18:14:38.440Z,65.01
2022-08-22T18:17:39.826Z,65.34
2022-08-22T18:20:22.429Z,65.63
2022-08-22T18:22:58.128Z,66.07
2022-08-22T18:25:54.053Z,66.03
2022-08-22T18:28:48.730Z,65.86
2022-08-22T18:31:46.513Z,65.60
2022-08-22T18:34:56.869Z,66.66
2022-08-22T18:37:30.899Z,66.66
2022-08-22T18:40:18.034Z,66.94
2022-08-22T18:43:01.062Z,67.29
2022-08-22T18:45:46.717Z,69.02
2022-08-22T18:48:49.506Z,68.84
2022-08-22T18:51:35.476Z,69.11
2022-08-22T18:54:08.458Z,70.52
2022-08-22T18:57:06.449Z,72.44
2022-08-22T19:00:16.752Z,73.23
2022-08-22T19:03:00.619Z,72.97
2022-08-22T19:06:05.742Z,72.51
2022-08-22T19:09:09.191Z,71.21
2022-08-22T19:12:30.728Z,71.50
2022-08-22T19:15:45.966Z,71.27
2022-08-22T19:18:35.716Z,70.43
2022-08-22T19:21:50.146Z,70.36
2022-08-22T19:24:30.769Z,70.14
2022-08-22T19:27:25.227Z,69.93
2022-08-22T19:30:23.536Z,70.41
2022-08-22T19:33:06.834Z,70.25
2022-08-22T19:35:49.109Z,70.35
2022-08-22T19:38:51.351Z,71.02
2022-08-22T19:41:56.530Z,71.79
2022-08-22T19:44:32.095Z,72.52
2022-08-22T19:47:05.377Z,73.58
2022-08-22T19:49:45.021Z,74.04
2022-08-22T19:52:46.247Z,73.98
2022-08-22T19:55:28.331Z,76.25
2022-08-22T19:58:39.770Z,76.63
2022-08-22T20:01:25.664Z,74.87
2022-08-22T20:04:34.540Z,75.40
2022-08-22T20:07:17.110Z,77.30
2022-08-22T20:09:51.937Z,77.55
2022-08-22T20:12:51.196Z,79.61
2022-08-22T20:15:25.325Z,79.20
2022-08-22T20:20:59.308Z,81.44
2022-08-22T20:23:31.635Z,84.50
2022-08-22T20:25:59.835Z,86.56
2022-08-22T20:28:44.566Z,83.33
2022-08-22T20:31:23.559Z,83.65
2022-08-22T20:34:14.308Z,84.25
2022-08-22T20:36:55.985Z,83.28
2022-08-22T20:39:58.508Z,83.48
2022-08-22T20:42:31.692Z,85.31
2022-08-22T20:45:04.446Z,84.67
2022-08-22T20:47:41.338Z,84.13
2022-08-22T20:50:11.602Z,85.04
2022-08-22T20:52:54.254Z,85.40
2022-08-22T20:55:31.228Z,87.42
2022-08-22T20:58:05.525Z,85.76
2022-08-22T21:00:49.142Z,85.87
2022-08-22T21:03:25.331Z,86.64
2022-08-22T21:05:52.597Z,86.51
2022-08-22T21:08:25.047Z,87.25
2022-08-22T21:11:19.538Z,87.58
2022-08-22T21:13:48.093Z,87.64
2022-08-22T21:16:18.999Z,87.82
2022-08-22T21:18:50.111Z,86.88
2022-08-22T21:21:17.955Z,87.40
2022-08-22T21:23:49.636Z,87.16
2022-08-22T21:26:27.599Z,87.74
2022-08-22T21:29:12.980Z,88.08
2022-08-22T21:32:07.450Z,87.76
2022-08-22T21:34:47.671Z,88.87
2022-08-22T21:37:16.980Z,89.34
2022-08-22T21:39:52.215Z,90.16
2022-08-22T21:42:30.716Z,89.34
2022-08-22T21:45:34.320Z,89.76
2022-08-22T21:48:01.644Z,90.60
2022-08-22T21:50:38.542Z,90.59
2022-08-22T21:53:24.541Z,91.22
2022-08-22T21:56:14.722Z,91.34
2022-08-22T21:58:42.790Z,90.34
2022-08-22T22:01:32.199Z,92.20
2022-08-22T22:03:59.637Z,91.09
2022-08-22T22:06:27.403Z,90.17
2022-08-22T22:08:54.812Z,90.12
2022-08-22T22:11:22.094Z,90.07
2022-08-22T22:13:49.506Z,90.01
2022-08-22T22:16:24.270Z,89.83
2022-08-22T22:18:51.554Z,89.74
2022-08-22T22:21:18.774Z,89.66
2022-08-22T22:23:46.291Z,90.15
2022-08-22T22:26:13.915Z,89.96
2022-08-22T22:28:47.018Z,90.16
2022-08-22T22:31:17.763Z,90.67
2022-08-22T22:33:45.312Z,90.04
2022-08-22T22:36:19.612Z,90.69
2022-08-22T22:38:48.607Z,91.67
2022-08-22T22:41:22.925Z,90.97
2022-08-22T22:43:50.662Z,89.83
2022-08-22T22:46:18.022Z,90.05
2022-08-22T22:48:45.369Z,90.22
2022-08-22T22:51:13.530Z,90.46
2022-08-22T22:53:43.046Z,90.05
2022-08-22T22:56:16.580Z,90.62
2022-08-22T22:58:44.832Z,91.64
2022-08-22T23:01:23.483Z,91.82
2022-08-22T23:04:05.654Z,91.22
2022-08-22T23:06:34.158Z,91.28
2022-08-22T23:09:01.365Z,91.47
2022-08-22T23:11:30.415Z,91.41
2022-08-22T23:13:58.144Z,90.86
2022-08-22T23:16:28.202Z,90.64
2022-08-22T23:18:55.940Z,91.29
2022-08-22T23:21:28.567Z,91.29
2022-08-22T23:24:00.163Z,90.91
2022-08-22T23:26:29.039Z,91.27
2022-08-22T23:28:57.545Z,91.24
2022-08-22T23:31:43.577Z,91.94
2022-08-22T23:34:17.061Z,91.66
2022-08-22T23:36:47.490Z,92.25
2022-08-22T23:39:16.266Z,92.96
2022-08-22T23:41:45.225Z,93.54
2022-08-22T23:44:17.268Z,92.79
2022-08-22T23:46:45.188Z,92.81
2022-08-22T23:49:13.843Z,92.91
2022-08-22T23:51:42.526Z,92.75
2022-08-22T23:54:09.714Z,93.06
2022-08-22T23:56:48.951Z,93.14
2022-08-22T23:59:28.058Z,93.52
